Time;durP1;ratioP1;P1;durP2;ratioP2;P2;SDS_P1;SDS_P2;PMS_P1;PMS_P2;Temp;Humidity;BMP_temperature;BMP_pressure;BME280_temperature;BME280_humidity;BME280_pressure;Samples;Min_cycle;Max_cycle;Signal;HPM_P1;HPM_P2
2022/10/20 00:01:23;;;;;;;11.25;7.03;;;8.00;99.90;;;;;;6253479;23;20184;-82
2022/10/20 00:03:51;;;;;;;10.85;7.13;;;8.00;99.90;;;;;;6229441;23;20163;-83
2022/10/20 00:06:28;;;;;;;8.27;6.32;;;8.00;99.90;;;;;;6253445;23;20503;-86
2022/10/20 00:09:01;;;;;;;7.10;5.47;;;7.80;99.90;;;;;;6255772;23;20450;-85
2022/10/20 00:11:29;;;;;;;8.70;5.93;;;7.60;99.90;;;;;;6229787;23;20175;-85
2022/10/20 00:13:57;;;;;;;13.32;7.55;;;7.60;99.90;;;;;;6262068;23;20199;-85
2022/10/20 00:16:26;;;;;;;12.13;8.02;;;7.70;99.90;;;;;;6270536;22;20189;-83
2022/10/20 00:18:53;;;;;;;9.07;7.40;;;7.60;99.90;;;;;;6244941;22;20195;-85
2022/10/20 00:21:23;;;;;;;6.57;5.75;;;7.50;99.90;;;;;;6266842;22;20187;-84
2022/10/20 00:23:52;;;;;;;12.27;7.78;;;7.40;99.90;;;;;;6254898;23;20179;-84
2022/10/20 00:26:22;;;;;;;9.88;7.32;;;7.40;99.90;;;;;;6227349;23;20183;-83
2022/10/20 00:28:50;;;;;;;8.25;6.82;;;7.20;99.90;;;;;;6225621;23;20172;-83
2022/10/20 00:31:21;;;;;;;8.00;7.15;;;7.30;99.90;;;;;;6226657;23;20164;-84
2022/10/20 00:33:48;;;;;;;9.02;7.68;;;7.40;99.90;;;;;;6252267;23;20464;-82
2022/10/20 00:36:23;;;;;;;9.68;7.63;;;7.30;99.90;;;;;;6251974;23;20187;-84
2022/10/20 00:38:56;;;;;;;8.07;7.20;;;7.60;99.90;;;;;;6251819;23;20249;-83
2022/10/20 00:41:23;;;;;;;11.18;8.43;;;7.60;99.90;;;;;;6254073;23;20172;-82
2022/10/20 00:43:57;;;;;;;8.45;6.57;;;7.60;99.90;;;;;;6253161;23;20183;-82
2022/10/20 00:46:40;;;;;;;9.60;7.18;;;7.70;99.90;;;;;;6253578;23;20218;-84
2022/10/20 00:49:21;;;;;;;8.40;7.57;;;7.50;99.90;;;;;;6254151;23;20168;-85
2022/10/20 00:51:54;;;;;;;8.32;7.43;;;7.60;99.90;;;;;;6254241;23;20163;-84
2022/10/20 00:54:26;;;;;;;8.70;7.72;;;7.60;99.90;;;;;;6254389;23;20233;-85
2022/10/20 00:56:55;;;;;;;10.32;7.93;;;7.50;99.90;;;;;;6255524;23;20209;-86
2022/10/20 00:59:33;;;;;;;9.18;8.00;;;7.40;99.90;;;;;;6228612;23;20267;-83
2022/10/20 01:02:02;;;;;;;16.50;10.00;;;7.30;99.90;;;;;;6254294;23;20646;-84
2022/10/20 01:04:30;;;;;;;13.90;10.45;;;7.10;99.90;;;;;;6226924;23;20191;-84
2022/10/20 01:06:59;;;;;;;13.13;11.18;;;6.90;99.90;;;;;;6202009;23;20237;-79
2022/10/20 01:09:28;;;;;;;12.95;10.27;;;6.80;99.90;;;;;;6251530;23;20188;-84
2022/10/20 01:12:18;;;;;;;11.63;9.35;;;6.70;99.90;;;;;;6251536;23;20188;-79
2022/10/20 01:15:11;;;;;;;10.63;9.50;;;6.50;99.90;;;;;;6251372;23;20167;-82
2022/10/20 01:17:51;;;;;;;13.68;9.85;;;6.50;99.90;;;;;;6251815;23;20172;-82
2022/10/20 01:21:04;;;;;;;10.55;8.57;;;6.30;99.90;;;;;;6251201;23;20384;-82
2022/10/20 01:23:55;;;;;;;14.38;9.60;;;6.30;99.90;;;;;;6252337;23;20353;-82
2022/10/20 01:26:58;;;;;;;13.93;10.10;;;6.50;99.90;;;;;;6243826;23;20164;-86
2022/10/20 01:29:37;;;;;;;14.73;10.52;;;6.70;99.90;;;;;;6244699;23;20163;-86
2022/10/20 01:32:48;;;;;;;13.43;9.95;;;6.30;99.90;;;;;;6259490;23;20171;-81
2022/10/20 01:35:51;;;;;;;12.02;10.10;;;6.50;99.90;;;;;;6253653;23;20168;-86
2022/10/20 01:38:35;;;;;;;12.80;9.20;;;6.40;99.90;;;;;;6252884;23;20418;-81
2022/10/20 01:41:36;;;;;;;10.45;9.40;;;6.30;99.90;;;;;;6228516;23;20198;-87
2022/10/20 01:44:08;;;;;;;12.85;10.10;;;6.40;99.90;;;;;;6249848;23;20183;-86
2022/10/20 01:46:38;;;;;;;15.18;12.35;;;6.40;99.90;;;;;;6252757;23;20196;-84
2022/10/20 01:49:06;;;;;;;20.42;12.07;;;6.10;99.90;;;;;;6250179;23;20233;-80
2022/10/20 01:51:33;;;;;;;15.05;12.00;;;6.00;99.90;;;;;;6250397;23;20449;-80
2022/10/20 01:54:01;;;;;;;14.02;11.73;;;6.10;99.90;;;;;;6252670;23;20218;-84
2022/10/20 01:56:47;;;;;;;13.20;11.77;;;6.00;99.90;;;;;;6251502;23;20179;-83
2022/10/20 01:59:33;;;;;;;15.73;12.93;;;5.90;99.90;;;;;;6224225;23;20242;-82
2022/10/20 02:02:27;;;;;;;15.05;11.13;;;6.00;99.90;;;;;;6250124;23;20167;-81
2022/10/20 02:05:34;;;;;;;16.63;13.40;;;5.90;99.90;;;;;;6224062;23;20210;-84
2022/10/20 02:08:35;;;;;;;26.15;14.68;;;5.90;99.90;;;;;;6236933;23;20179;-84
2022/10/20 02:11:08;;;;;;;19.55;15.68;;;5.90;99.90;;;;;;6238093;23;20179;-80
2022/10/20 02:13:40;;;;;;;21.63;16.05;;;5.80;99.90;;;;;;6251499;23;20213;-85
2022/10/20 02:16:20;;;;;;;23.30;17.33;;;5.60;99.90;;;;;;6251742;23;20180;-85
2022/10/20 02:18:49;;;;;;;26.98;18.45;;;5.50;99.90;;;;;;6250752;23;20349;-80
2022/10/20 02:21:16;;;;;;;29.08;19.38;;;5.60;99.90;;;;;;6252260;23;20179;-84
2022/10/20 02:23:47;;;;;;;23.17;17.67;;;5.60;99.90;;;;;;6252401;23;20228;-86
2022/10/20 02:26:19;;;;;;;24.08;18.25;;;5.60;99.90;;;;;;6227295;23;20230;-85
2022/10/20 02:28:52;;;;;;;35.33;21.52;;;5.70;99.90;;;;;;6200668;23;20183;-84
2022/10/20 02:31:22;;;;;;;37.25;21.13;;;5.70;99.90;;;;;;6255619;23;20214;-86
2022/10/20 02:33:51;;;;;;;29.90;20.90;;;5.70;99.90;;;;;;6252689;23;20188;-85
2022/10/20 02:36:23;;;;;;;34.05;23.85;;;5.60;99.90;;;;;;6253663;23;20179;-86
2022/10/20 02:38:50;;;;;;;32.30;21.20;;;5.60;99.90;;;;;;6223804;23;20208;-81
2022/10/20 02:41:17;;;;;;;34.08;21.40;;;5.60;99.90;;;;;;6252903;23;20192;-82
2022/10/20 02:43:44;;;;;;;32.08;22.38;;;5.60;99.90;;;;;;6252642;23;20180;-85
2022/10/20 02:46:19;;;;;;;31.13;19.65;;;5.50;99.90;;;;;;6252372;23;20194;-81
2022/10/20 02:48:46;;;;;;;34.85;19.70;;;5.40;99.90;;;;;;6252168;23;20198;-85
2022/10/20 02:51:14;;;;;;;29.63;19.60;;;5.50;99.90;;;;;;6252392;23;20183;-85
2022/10/20 02:53:40;;;;;;;25.70;20.60;;;5.50;99.90;;;;;;6252809;23;20229;-82
2022/10/20 02:56:08;;;;;;;25.05;18.65;;;5.40;99.90;;;;;;6250305;23;20241;-84
2022/10/20 02:58:35;;;;;;;32.08;18.23;;;5.40;99.90;;;;;;6249974;23;20254;-84
2022/10/20 03:01:03;;;;;;;27.35;18.70;;;5.30;99.90;;;;;;6227347;23;20183;-84
2022/10/20 03:03:31;;;;;;;28.70;18.75;;;5.50;99.90;;;;;;6253543;23;20184;-84
2022/10/20 03:06:05;;;;;;;24.45;17.02;;;5.40;99.90;;;;;;6253221;23;20218;-84
2022/10/20 03:08:32;;;;;;;23.83;17.52;;;5.40;99.90;;;;;;6252160;23;20239;-84
2022/10/20 03:11:01;;;;;;;18.98;16.48;;;5.40;99.90;;;;;;6252730;23;20183;-84
2022/10/20 03:13:27;;;;;;;26.00;16.48;;;5.20;99.90;;;;;;6212339;23;20183;-85
2022/10/20 03:15:56;;;;;;;22.10;15.48;;;5.30;99.90;;;;;;6225617;23;20182;-80
2022/10/20 03:18:37;;;;;;;20.13;16.45;;;5.40;99.90;;;;;;6231994;22;20202;-86
2022/10/20 03:21:04;;;;;;;19.05;14.65;;;5.30;99.90;;;;;;6228347;23;20214;-87
2022/10/20 03:23:31;;;;;;;21.52;15.20;;;5.40;99.90;;;;;;6253335;23;20187;-86
2022/10/20 03:26:04;;;;;;;16.25;13.30;;;5.30;99.90;;;;;;6251450;23;20195;-82
2022/10/20 03:28:33;;;;;;;24.30;16.17;;;5.20;99.90;;;;;;6251181;23;20221;-84
2022/10/20 03:31:00;;;;;;;15.77;13.70;;;5.30;99.90;;;;;;6250956;23;20267;-80
2022/10/20 03:33:30;;;;;;;17.40;14.05;;;5.30;99.90;;;;;;6251137;23;20407;-82
2022/10/20 03:35:57;;;;;;;18.65;13.98;;;5.20;99.90;;;;;;6251280;23;20179;-79
2022/10/20 03:38:26;;;;;;;19.92;14.40;;;5.20;99.90;;;;;;6250076;23;20528;-83
2022/10/20 03:40:52;;;;;;;14.68;12.23;;;5.10;99.90;;;;;;6251492;23;20218;-81
2022/10/20 03:43:20;;;;;;;16.77;14.27;;;5.00;99.90;;;;;;6253614;23;20183;-79
2022/10/20 03:45:47;;;;;;;20.33;14.07;;;4.80;99.90;;;;;;6252972;23;20186;-83
2022/10/20 03:48:14;;;;;;;20.30;14.77;;;4.90;99.90;;;;;;6226711;23;20398;-82
2022/10/20 03:50:42;;;;;;;17.98;14.20;;;5.10;99.90;;;;;;6252050;23;20241;-84
2022/10/20 03:53:12;;;;;;;19.25;13.90;;;5.00;99.90;;;;;;6226363;23;20505;-83
2022/10/20 03:55:40;;;;;;;20.55;16.38;;;5.00;99.90;;;;;;6225854;23;20168;-80
2022/10/20 03:58:07;;;;;;;17.52;14.88;;;5.00;99.90;;;;;;6225897;23;20239;-82
2022/10/20 04:00:37;;;;;;;16.58;13.73;;;4.80;99.90;;;;;;6252959;23;20200;-82
2022/10/20 04:03:04;;;;;;;19.10;15.32;;;4.70;99.90;;;;;;6251475;23;20367;-84
2022/10/20 04:05:31;;;;;;;19.08;15.35;;;4.50;99.90;;;;;;6251555;23;20175;-85
2022/10/20 04:07:59;;;;;;;16.75;14.00;;;4.70;99.90;;;;;;6227257;23;20230;-83
2022/10/20 04:10:29;;;;;;;16.42;14.02;;;4.70;99.90;;;;;;6227296;23;20187;-82
2022/10/20 04:12:58;;;;;;;20.75;14.70;;;4.70;99.90;;;;;;6253005;23;20598;-81
2022/10/20 04:15:25;;;;;;;17.70;15.07;;;4.50;99.90;;;;;;6228591;23;20183;-80
2022/10/20 04:17:59;;;;;;;20.65;15.30;;;4.60;99.90;;;;;;6254153;23;20193;-83
2022/10/20 04:20:27;;;;;;;21.65;16.30;;;4.60;99.90;;;;;;6253500;23;20200;-81
2022/10/20 04:22:55;;;;;;;21.30;16.25;;;4.80;99.90;;;;;;6254224;23;20176;-82
2022/10/20 04:25:29;;;;;;;21.08;14.95;;;4.80;99.90;;;;;;6253241;23;20219;-83
2022/10/20 04:28:04;;;;;;;20.90;15.93;;;4.80;99.90;;;;;;6229535;23;20183;-80
2022/10/20 04:30:32;;;;;;;23.52;15.82;;;4.70;99.90;;;;;;6254226;23;20186;-84
2022/10/20 04:33:07;;;;;;;18.25;14.57;;;4.70;99.90;;;;;;6254584;23;20343;-82
2022/10/20 04:35:34;;;;;;;18.13;15.75;;;4.70;99.90;;;;;;6227256;23;20183;-86
2022/10/20 04:38:01;;;;;;;19.75;15.85;;;4.40;99.90;;;;;;6254619;23;20713;-83
2022/10/20 04:40:45;;;;;;;21.00;17.40;;;4.30;99.90;;;;;;6232358;23;20187;-82
2022/10/20 04:43:14;;;;;;;23.00;16.77;;;4.40;99.90;;;;;;6255431;23;20490;-84
2022/10/20 04:45:41;;;;;;;21.42;16.73;;;4.30;99.90;;;;;;6254810;23;20192;-83
2022/10/20 04:48:09;;;;;;;19.30;15.95;;;4.30;99.90;;;;;;6253112;23;20348;-85
2022/10/20 04:50:36;;;;;;;20.02;16.05;;;4.30;99.90;;;;;;6253594;23;20171;-82
2022/10/20 04:53:04;;;;;;;17.05;14.48;;;4.10;99.90;;;;;;6252750;23;20214;-81
2022/10/20 04:55:34;;;;;;;23.73;17.73;;;4.20;99.90;;;;;;6228664;23;20184;-82
2022/10/20 04:58:03;;;;;;;21.25;18.08;;;4.20;99.90;;;;;;6232665;23;20159;-80
2022/10/20 05:00:29;;;;;;;23.02;17.48;;;4.30;99.90;;;;;;6257300;23;20214;-83
2022/10/20 05:02:57;;;;;;;21.52;18.55;;;4.20;99.90;;;;;;6259740;23;20530;-84
2022/10/20 05:05:25;;;;;;;28.70;19.98;;;4.00;99.90;;;;;;6235746;23;20183;-85
2022/10/20 05:07:52;;;;;;;23.30;17.52;;;4.10;99.90;;;;;;6247400;22;20206;-82
2022/10/20 05:10:22;;;;;;;24.88;17.42;;;4.20;99.90;;;;;;6222592;22;20151;-84
2022/10/20 05:12:52;;;;;;;27.77;20.25;;;4.30;99.90;;;;;;6247509;22;20191;-85
2022/10/20 05:15:24;;;;;;;30.08;20.00;;;4.20;99.90;;;;;;6296086;22;20250;-86
2022/10/20 05:17:54;;;;;;;24.10;19.83;;;4.20;99.90;;;;;;6301483;22;20202;-84
2022/10/20 05:20:23;;;;;;;24.60;18.50;;;4.20;99.90;;;;;;6292520;22;20183;-85
2022/10/20 05:22:50;;;;;;;26.20;21.40;;;4.30;99.90;;;;;;6269206;22;20170;-84
2022/10/20 05:25:31;;;;;;;29.02;21.75;;;4.30;99.90;;;;;;6284044;22;20258;-83
2022/10/20 05:28:03;;;;;;;23.77;21.05;;;4.10;99.90;;;;;;6296778;22;20175;-88
2022/10/20 05:30:35;;;;;;;24.30;19.75;;;4.10;99.90;;;;;;6295933;22;20228;-90
2022/10/20 05:33:06;;;;;;;23.45;20.55;;;4.00;99.90;;;;;;6246727;22;20197;-83
2022/10/20 05:35:43;;;;;;;30.05;20.50;;;4.00;99.90;;;;;;6290030;22;20178;-86
2022/10/20 05:38:20;;;;;;;27.38;21.50;;;3.90;99.90;;;;;;6269315;22;20182;-83
2022/10/20 05:41:17;;;;;;;32.50;23.00;;;3.80;99.90;;;;;;6215825;22;20231;-83
2022/10/20 05:43:57;;;;;;;32.75;21.70;;;3.90;99.90;;;;;;6270418;22;20180;-83
2022/10/20 05:46:37;;;;;;;30.55;22.08;;;4.00;99.90;;;;;;6263496;22;20174;-88
2022/10/20 05:49:12;;;;;;;32.25;20.35;;;3.90;99.90;;;;;;6290976;22;20261;-86
2022/10/20 05:51:44;;;;;;;27.10;21.92;;;4.00;99.90;;;;;;6164790;23;20173;-83
2022/10/20 05:54:16;;;;;;;31.33;22.83;;;4.20;99.90;;;;;;6293822;22;20178;-83
2022/10/20 05:56:47;;;;;;;32.60;23.42;;;4.20;99.90;;;;;;6167638;23;20208;-83
2022/10/20 05:59:19;;;;;;;27.17;19.33;;;4.30;99.90;;;;;;6291641;22;20229;-85
2022/10/20 06:01:47;;;;;;;27.27;21.23;;;4.30;99.90;;;;;;6293581;22;20178;-85
2022/10/20 06:04:46;;;;;;;31.58;19.55;;;4.40;99.90;;;;;;6169169;23;20162;-85
2022/10/20 06:07:33;;;;;;;24.83;21.45;;;4.30;99.90;;;;;;6174977;22;20234;-84
2022/10/20 06:10:03;;;;;;;26.67;19.75;;;4.40;99.90;;;;;;6167575;22;20173;-85
2022/10/20 06:12:34;;;;;;;30.83;23.08;;;4.40;99.90;;;;;;6269025;22;20196;-84
2022/10/20 06:15:07;;;;;;;28.83;21.30;;;4.40;99.90;;;;;;6170343;22;20273;-84
2022/10/20 06:17:46;;;;;;;33.88;23.98;;;4.40;99.90;;;;;;6266685;22;20218;-84
2022/10/20 06:20:17;;;;;;;33.40;25.23;;;4.60;99.90;;;;;;6171447;22;20208;-80
2022/10/20 06:22:48;;;;;;;31.27;23.27;;;4.70;99.90;;;;;;6165780;23;20381;-83
2022/10/20 06:25:19;;;;;;;32.33;26.58;;;4.80;99.90;;;;;;6293600;22;20239;-84
2022/10/20 06:27:51;;;;;;;41.60;31.58;;;4.80;99.90;;;;;;6168240;22;20181;-82
2022/10/20 06:30:30;;;;;;;36.08;29.45;;;4.90;99.90;;;;;;6169395;23;20208;-83
2022/10/20 06:33:11;;;;;;;30.38;24.50;;;4.90;99.90;;;;;;6169325;22;20181;-86
2022/10/20 06:35:52;;;;;;;26.10;20.92;;;4.90;99.90;;;;;;6268933;22;20216;-82
2022/10/20 06:38:31;;;;;;;22.52;20.23;;;5.00;99.90;;;;;;6276942;22;20212;-88
2022/10/20 06:41:16;;;;;;;23.45;19.98;;;5.10;99.90;;;;;;6256964;22;20227;-83
2022/10/20 06:43:57;;;;;;;20.20;17.92;;;5.30;99.90;;;;;;6169326;22;20174;-81
2022/10/20 06:46:35;;;;;;;21.05;16.80;;;5.40;99.90;;;;;;6167440;23;20174;-79
2022/10/20 06:49:10;;;;;;;19.20;15.23;;;5.40;99.90;;;;;;6271049;22;20212;-80
2022/10/20 06:51:43;;;;;;;19.10;15.65;;;5.40;99.90;;;;;;6286168;22;20170;-82
2022/10/20 06:54:15;;;;;;;19.65;17.38;;;5.50;99.90;;;;;;6167401;23;20394;-81
2022/10/20 06:56:45;;;;;;;22.30;15.90;;;5.50;99.90;;;;;;6269596;22;20220;-81
2022/10/20 06:59:22;;;;;;;18.42;14.82;;;5.70;99.90;;;;;;6168076;22;20161;-81
2022/10/20 07:02:09;;;;;;;18.67;15.32;;;5.80;99.90;;;;;;6180938;22;20266;-82
2022/10/20 07:04:40;;;;;;;17.95;14.32;;;6.00;99.90;;;;;;6268655;22;20211;-82
2022/10/20 07:07:16;;;;;;;18.88;14.50;;;6.10;99.90;;;;;;6259850;22;20177;-81
2022/10/20 07:09:55;;;;;;;14.93;12.75;;;6.30;99.90;;;;;;6258479;22;20156;-83
2022/10/20 07:12:23;;;;;;;18.25;13.57;;;6.50;99.90;;;;;;6165917;23;20181;-82
2022/10/20 07:14:58;;;;;;;15.27;13.70;;;6.60;99.90;;;;;;6265096;22;20196;-80
2022/10/20 07:17:26;;;;;;;20.58;13.57;;;7.00;99.90;;;;;;6164232;22;20166;-82
2022/10/20 07:19:54;;;;;;;14.43;11.10;;;7.40;99.90;;;;;;6265610;22;20204;-81
2022/10/20 07:22:35;;;;;;;12.52;10.15;;;8.00;99.90;;;;;;6162716;22;20169;-81
2022/10/20 07:25:12;;;;;;;14.32;10.85;;;9.00;99.90;;;;;;6164937;22;20169;-81
2022/10/20 07:27:48;;;;;;;15.95;9.93;;;10.80;99.90;;;;;;6162979;23;20178;-79
2022/10/20 07:30:16;;;;;;;15.23;8.88;;;11.70;99.90;;;;;;6263776;22;20181;-81
2022/10/20 07:32:45;;;;;;;12.35;9.90;;;13.20;99.90;;;;;;6261550;22;20231;-81
2022/10/20 07:35:21;;;;;;;8.63;7.30;;;14.50;99.90;;;;;;6161247;23;20185;-83
2022/10/20 07:38:12;;;;;;;12.40;8.70;;;14.80;99.90;;;;;;6243636;22;20157;-81
2022/10/20 07:40:43;;;;;;;16.17;8.93;;;15.00;99.90;;;;;;6259246;22;20205;-80
2022/10/20 07:43:10;;;;;;;10.97;8.87;;;15.30;99.90;;;;;;6162063;23;20399;-81
2022/10/20 07:45:43;;;;;;;13.60;8.00;;;14.70;99.90;;;;;;6162089;22;20619;-81
2022/10/20 07:48:14;;;;;;;13.87;9.00;;;14.20;99.90;;;;;;6162732;23;20443;-81
2022/10/20 07:50:52;;;;;;;9.80;8.10;;;14.50;99.90;;;;;;6260467;22;20362;-82
2022/10/20 07:53:28;;;;;;;11.93;8.67;;;15.30;99.90;;;;;;6261498;22;20372;-82
2022/10/20 07:55:58;;;;;;;11.00;8.40;;;15.60;99.90;;;;;;6261607;22;20616;-83
2022/10/20 07:58:25;;;;;;;12.17;9.13;;;15.90;99.90;;;;;;6161789;22;20423;-82
2022/10/20 08:00:56;;;;;;;10.23;7.63;;;16.10;99.90;;;;;;6161393;23;20430;-81
2022/10/20 08:03:24;;;;;;;9.90;8.63;;;15.30;99.90;;;;;;6162307;23;20798;-81
2022/10/20 08:05:52;;;;;;;14.57;8.30;;;15.20;99.90;;;;;;6163202;22;20412;-82
2022/10/20 08:08:29;;;;;;;12.77;8.07;;;15.40;99.90;;;;;;6257177;22;20465;-81
2022/10/20 08:10:57;;;;;;;8.87;8.07;;;16.50;99.90;;;;;;6162467;22;20394;-80
2022/10/20 08:13:28;;;;;;;9.67;8.03;;;16.60;99.90;;;;;;6160126;22;20449;-80
2022/10/20 08:15:55;;;;;;;9.93;9.03;;;15.60;99.90;;;;;;6258864;22;20386;-82
2022/10/20 08:18:24;;;;;;;10.80;7.43;;;14.80;99.90;;;;;;6290703;22;20383;-81
2022/10/20 08:21:19;;;;;;;10.00;8.77;;;15.90;99.90;;;;;;6164172;23;20804;-82
2022/10/20 08:23:50;;;;;;;9.80;8.77;;;17.00;99.90;;;;;;6262591;22;20475;-82
2022/10/20 08:26:28;;;;;;;10.77;8.67;;;17.00;99.90;;;;;;6162564;22;20394;-81
2022/10/20 08:28:59;;;;;;;9.23;8.30;;;17.40;99.90;;;;;;6160878;23;20377;-82
2022/10/20 08:31:26;;;;;;;8.00;7.20;;;16.90;99.90;;;;;;6161579;23;20415;-82
2022/10/20 08:33:55;;;;;;;9.13;6.83;;;16.10;99.90;;;;;;6161305;23;20375;-79
2022/10/20 08:36:27;;;;;;;10.57;7.53;;;15.90;99.90;;;;;;6262328;22;20421;-84
2022/10/20 08:38:55;;;;;;;9.07;6.50;;;15.20;99.90;;;;;;6266349;22;20473;-81
2022/10/20 08:41:36;;;;;;;11.37;6.80;;;15.30;99.90;;;;;;6163306;22;20439;-80
2022/10/20 08:44:29;;;;;;;6.87;6.13;;;14.90;99.90;;;;;;6243395;22;20396;-80
2022/10/20 08:47:03;;;;;;;8.70;7.27;;;14.30;99.90;;;;;;6161955;22;20380;-82
2022/10/20 08:49:34;;;;;;;8.33;6.40;;;15.40;99.90;;;;;;6263044;22;20422;-78
2022/10/20 08:52:03;;;;;;;8.30;6.27;;;14.90;99.90;;;;;;6164990;22;20388;-84
2022/10/20 08:54:34;;;;;;;10.93;6.57;;;14.40;99.90;;;;;;6168670;22;20392;-79
2022/10/20 08:57:01;;;;;;;7.07;6.37;;;14.40;99.90;;;;;;6169706;23;20409;-86
2022/10/20 08:59:44;;;;;;;11.87;9.00;;;14.30;99.90;;;;;;6278285;22;20411;-82
2022/10/20 09:02:15;;;;;;;13.48;7.25;;;13.50;99.90;;;;;;6179933;22;20404;-79
2022/10/20 09:04:51;;;;;;;7.13;6.38;;;12.60;99.90;;;;;;6169024;23;20181;-79
2022/10/20 09:07:23;;;;;;;10.13;7.50;;;11.90;99.90;;;;;;6163530;23;20468;-80
2022/10/20 09:09:54;;;;;;;9.15;6.65;;;11.60;99.90;;;;;;6261886;22;20231;-78
2022/10/20 09:12:22;;;;;;;11.68;6.90;;;11.20;99.90;;;;;;6261840;22;20181;-79
2022/10/20 09:14:59;;;;;;;7.22;6.53;;;11.40;99.90;;;;;;6256461;22;20504;-80
2022/10/20 09:17:27;;;;;;;7.55;5.60;;;11.40;99.90;;;;;;6158037;23;20162;-81
2022/10/20 09:19:57;;;;;;;8.38;6.90;;;11.20;99.90;;;;;;6261205;22;20409;-80
2022/10/20 09:22:26;;;;;;;8.35;5.18;;;11.20;99.90;;;;;;6159389;22;20216;-80
2022/10/20 09:25:02;;;;;;;10.75;6.93;;;11.10;99.90;;;;;;6256499;22;20173;-82
2022/10/20 09:27:38;;;;;;;4.72;4.20;;;11.10;99.90;;;;;;6158049;22;20186;-80
2022/10/20 09:30:24;;;;;;;6.03;5.50;;;11.20;99.90;;;;;;6258919;22;20165;-80
2022/10/20 09:32:54;;;;;;;5.72;4.53;;;11.20;99.90;;;;;;6259636;22;20170;-80
2022/10/20 09:35:46;;;;;;;8.35;4.97;;;11.30;99.90;;;;;;6260914;22;20193;-80
2022/10/20 09:38:18;;;;;;;9.25;4.75;;;11.30;99.90;;;;;;6158825;22;20162;-79
2022/10/20 09:40:57;;;;;;;7.13;4.60;;;11.30;99.90;;;;;;6159337;22;20378;-82
2022/10/20 09:43:25;;;;;;;4.78;4.35;;;11.20;99.90;;;;;;6158896;23;20177;-78
2022/10/20 09:46:03;;;;;;;5.57;5.00;;;11.30;99.90;;;;;;6159873;23;20197;-79
2022/10/20 09:48:34;;;;;;;5.45;4.53;;;11.30;99.90;;;;;;6263463;22;20158;-79
2022/10/20 09:51:01;;;;;;;4.60;4.15;;;11.30;99.90;;;;;;6162856;22;20173;-79
2022/10/20 09:53:34;;;;;;;4.47;3.45;;;11.40;99.90;;;;;;6169973;22;20181;-80
2022/10/20 09:56:03;;;;;;;6.25;5.30;;;11.50;99.90;;;;;;6179276;23;20153;-79
2022/10/20 09:58:36;;;;;;;5.05;3.65;;;11.50;99.90;;;;;;6178590;23;20173;-82
2022/10/20 10:01:17;;;;;;;5.95;3.22;;;11.50;99.90;;;;;;6175812;23;20212;-84
2022/10/20 10:03:46;;;;;;;6.28;4.10;;;11.40;99.90;;;;;;6171140;23;20189;-80
2022/10/20 10:06:28;;;;;;;5.75;4.82;;;11.50;99.90;;;;;;6164504;22;20178;-81
2022/10/20 10:08:58;;;;;;;8.35;4.63;;;11.60;99.90;;;;;;6264643;22;20192;-81
2022/10/20 10:11:34;;;;;;;4.88;3.45;;;11.80;99.90;;;;;;6264311;22;20223;-81
2022/10/20 10:14:03;;;;;;;7.03;3.10;;;11.80;99.90;;;;;;6160369;23;20189;-80
2022/10/20 10:16:42;;;;;;;6.60;4.50;;;11.70;99.90;;;;;;6159892;23;20236;-79
2022/10/20 10:19:16;;;;;;;5.25;3.10;;;11.70;99.90;;;;;;6160419;23;20211;-83
2022/10/20 10:21:56;;;;;;;2.95;2.70;;;11.70;99.90;;;;;;6261946;22;20201;-83
2022/10/20 10:24:41;;;;;;;4.30;3.40;;;11.80;99.90;;;;;;6163734;22;20182;-82
2022/10/20 10:27:30;;;;;;;4.93;3.35;;;11.80;99.90;;;;;;6162727;23;20166;-85
2022/10/20 10:30:29;;;;;;;4.20;3.28;;;11.80;99.90;;;;;;6165518;22;20199;-84
2022/10/20 10:32:57;;;;;;;2.88;2.65;;;11.90;99.90;;;;;;6268210;22;20178;-81
2022/10/20 10:35:41;;;;;;;4.72;3.63;;;11.90;99.90;;;;;;6268090;22;20293;-84
2022/10/20 10:38:13;;;;;;;7.38;4.45;;;12.00;99.90;;;;;;6166617;22;20189;-81
2022/10/20 10:41:05;;;;;;;5.10;3.83;;;12.00;99.90;;;;;;6163977;23;20236;-82
2022/10/20 10:44:02;;;;;;;4.13;3.50;;;12.10;99.90;;;;;;6168287;23;20165;-81
2022/10/20 10:46:43;;;;;;;12.10;4.30;;;12.10;99.90;;;;;;6164856;23;20244;-84
2022/10/20 10:49:43;;;;;;;7.50;5.95;;;12.10;99.90;;;;;;6163717;22;20188;-81
2022/10/20 10:53:08;;;;;;;4.88;3.33;;;12.00;99.90;;;;;;6245616;22;20177;-85
2022/10/20 10:55:57;;;;;;;3.83;2.90;;;11.80;99.90;;;;;;6161226;23;20245;-85
2022/10/20 10:58:34;;;;;;;8.25;3.38;;;12.00;99.90;;;;;;6163237;22;20185;-87
2022/10/20 11:01:33;;;;;;;10.80;4.85;;;12.00;99.90;;;;;;6163588;22;20181;-84
2022/10/20 11:04:47;;;;;;;4.85;2.50;;;11.90;99.90;;;;;;6163907;23;20189;-86
2022/10/20 11:07:41;;;;;;;3.25;2.22;;;11.90;99.90;;;;;;6265110;22;20193;-82
2022/10/20 11:10:27;;;;;;;2.35;2.15;;;11.90;99.90;;;;;;6160648;23;20351;-85
2022/10/20 11:13:20;;;;;;;4.75;3.28;;;12.00;99.90;;;;;;6159963;23;20198;-86
2022/10/20 11:16:11;;;;;;;4.03;3.17;;;12.10;99.90;;;;;;6162280;22;20197;-83
2022/10/20 11:19:00;;;;;;;3.85;3.33;;;12.00;99.90;;;;;;6161176;23;20219;-88
2022/10/20 11:21:51;;;;;;;6.43;3.40;;;11.90;99.90;;;;;;6161823;23;20194;-84
2022/10/20 11:24:30;;;;;;;5.63;3.20;;;12.00;99.90;;;;;;6262096;22;20178;-85
2022/10/20 11:27:09;;;;;;;3.00;2.70;;;12.10;99.90;;;;;;6260218;22;20657;-84
2022/10/20 11:29:45;;;;;;;5.53;3.05;;;12.10;99.90;;;;;;6162591;23;20208;-83
2022/10/20 11:32:28;;;;;;;5.38;2.75;;;12.20;99.90;;;;;;6235038;23;20162;-86
2022/10/20 11:35:48;;;;;;;3.83;3.15;;;12.20;99.90;;;;;;6165528;23;20222;-87
2022/10/20 11:38:49;;;;;;;2.90;2.38;;;12.10;99.90;;;;;;6168157;22;20244;-86
2022/10/20 11:41:30;;;;;;;5.90;2.20;;;12.00;99.90;;;;;;6267144;22;20181;-86
2022/10/20 11:44:45;;;;;;;2.38;1.83;;;12.10;99.90;;;;;;6164247;23;20181;-84
2022/10/20 11:47:21;;;;;;;2.83;2.35;;;12.10;99.90;;;;;;6166573;22;20181;-88
2022/10/20 11:49:57;;;;;;;3.42;2.95;;;12.00;99.90;;;;;;6270071;22;20180;-83
2022/10/20 11:53:16;;;;;;;3.85;2.15;;;12.10;99.90;;;;;;6262709;22;20181;-85
2022/10/20 11:56:00;;;;;;;4.20;3.70;;;12.10;99.90;;;;;;6165114;22;20208;-86
2022/10/20 11:59:08;;;;;;;5.20;3.15;;;12.10;99.90;;;;;;6164755;23;20253;-85
2022/10/20 12:02:21;;;;;;;4.75;3.50;;;12.30;99.90;;;;;;6164045;22;20219;-84
2022/10/20 12:05:23;;;;;;;4.07;3.50;;;12.20;99.90;;;;;;6192717;22;20240;-87
2022/10/20 12:08:02;;;;;;;3.35;2.63;;;12.20;99.90;;;;;;6163864;23;20166;-85
2022/10/20 12:11:06;;;;;;;3.63;3.20;;;12.20;99.90;;;;;;6166302;22;20173;-86
2022/10/20 12:14:02;;;;;;;4.20;3.80;;;12.20;99.90;;;;;;6166030;22;20539;-86
2022/10/20 12:16:51;;;;;;;11.25;4.60;;;12.30;99.90;;;;;;6264422;22;20181;-82
2022/10/20 12:19:28;;;;;;;7.63;3.90;;;12.30;99.90;;;;;;6262826;22;20174;-85
2022/10/20 12:22:15;;;;;;;6.57;4.10;;;12.20;99.90;;;;;;6164523;23;20212;-84
2022/10/20 12:24:51;;;;;;;5.72;4.00;;;12.20;99.90;;;;;;6167251;23;20166;-85
2022/10/20 12:27:26;;;;;;;4.28;3.70;;;12.10;99.90;;;;;;6164273;22;20188;-84
2022/10/20 12:30:28;;;;;;;6.57;3.92;;;12.10;99.90;;;;;;6170938;22;20182;-84
2022/10/20 12:33:14;;;;;;;4.18;3.53;;;12.20;99.90;;;;;;6265503;22;20181;-81
2022/10/20 12:35:56;;;;;;;3.80;3.08;;;12.20;99.90;;;;;;6173634;22;20177;-83
2022/10/20 12:38:24;;;;;;;6.13;4.75;;;12.30;99.90;;;;;;6173968;23;20173;-84
2022/10/20 12:40:56;;;;;;;4.75;4.05;;;12.20;99.90;;;;;;6254139;22;20198;-80
2022/10/20 12:43:45;;;;;;;5.68;3.40;;;12.10;99.90;;;;;;6275783;22;20385;-80
2022/10/20 12:46:24;;;;;;;8.68;4.25;;;12.20;99.90;;;;;;6163001;23;20182;-83
2022/10/20 12:48:58;;;;;;;7.53;3.88;;;12.10;99.90;;;;;;6262714;22;20166;-81
2022/10/20 12:51:34;;;;;;;4.60;3.55;;;12.20;99.90;;;;;;6263274;22;20383;-79
2022/10/20 12:54:13;;;;;;;3.95;3.08;;;12.20;99.90;;;;;;6160810;22;20209;-81
2022/10/20 12:56:42;;;;;;;5.75;5.10;;;12.20;99.90;;;;;;6161104;23;20169;-85
2022/10/20 12:59:28;;;;;;;5.22;3.65;;;12.30;99.90;;;;;;6161368;23;20162;-80
2022/10/20 13:02:07;;;;;;;5.18;3.58;;;12.20;99.90;;;;;;6262482;22;20436;-83
2022/10/20 13:05:06;;;;;;;6.25;3.65;;;12.20;99.90;;;;;;6260246;22;20266;-83
2022/10/20 13:07:47;;;;;;;4.60;3.13;;;12.20;99.90;;;;;;6161538;23;20181;-81
2022/10/20 13:10:39;;;;;;;5.40;3.22;;;12.20;99.90;;;;;;6256794;22;20190;-80
2022/10/20 13:13:26;;;;;;;4.32;3.65;;;12.30;99.90;;;;;;6265889;22;20345;-79
2022/10/20 13:16:20;;;;;;;5.05;3.85;;;12.20;99.90;;;;;;6247958;22;20169;-84
2022/10/20 13:18:52;;;;;;;3.15;2.85;;;12.30;99.90;;;;;;6268081;22;20252;-83
2022/10/20 13:21:31;;;;;;;5.75;4.38;;;12.30;99.90;;;;;;6270454;22;20698;-82
2022/10/20 13:24:36;;;;;;;5.85;4.10;;;12.10;99.90;;;;;;6170814;22;20189;-83
2022/10/20 13:27:15;;;;;;;8.27;4.78;;;12.10;99.90;;;;;;6164711;23;20186;-83
2022/10/20 13:29:47;;;;;;;4.88;4.20;;;12.00;99.90;;;;;;6163692;23;20221;-82
2022/10/20 13:32:35;;;;;;;7.25;5.07;;;12.00;99.90;;;;;;6163939;23;20174;-81